Time;durP1;ratioP1;P1;durP2;ratioP2;P2;SDS_P1;SDS_P2;PMS_P1;PMS_P2;Temp;Humidity;BMP_temperature;BMP_pressure;BME280_temperature;BME280_humidity;BME280_pressure;Samples;Min_cycle;Max_cycle;Signal;HPM_P1;HPM_P2
2023/05/16 00:00:33;;;;;;;28.15;7.15;;;;;;;14.56;84.38;100176.28;4844632;28;20088;-57
2023/05/16 00:03:07;;;;;;;23.08;7.55;;;;;;;14.87;81.30;100181.31;4843935;28;20046;-57
2023/05/16 00:05:41;;;;;;;26.02;7.15;;;;;;;14.80;81.96;100167.56;4854656;28;20528;-57
2023/05/16 00:08:16;;;;;;;26.17;6.75;;;;;;;14.53;79.75;100124.66;4854794;28;20065;-57
2023/05/16 00:10:47;;;;;;;19.08;6.97;;;;;;;14.93;80.56;100167.97;4849488;28;20057;-56
2023/05/16 00:13:21;;;;;;;22.87;7.33;;;;;;;15.26;80.38;100165.03;4853391;28;20054;-56
2023/05/16 00:15:52;;;;;;;22.17;6.82;;;;;;;15.41;80.24;100167.06;4853139;28;20273;-56
2023/05/16 00:22:22;;;;;;;22.10;6.75;;;;;;;15.17;78.34;100168.84;4839578;28;20274;-56
2023/05/16 00:24:54;;;;;;;21.03;7.50;;;;;;;15.24;79.46;100182.63;4856480;28;20098;-56
2023/05/16 00:27:25;;;;;;;21.85;6.45;;;;;;;15.03;78.07;100163.25;4854033;28;20292;-56
2023/05/16 00:29:59;;;;;;;20.27;6.63;;;;;;;14.71;77.95;100153.88;4853581;28;20061;-57
2023/05/16 00:32:30;;;;;;;18.43;7.17;;;;;;;14.43;78.48;100175.81;4837259;28;20653;-57
2023/05/16 00:35:02;;;;;;;22.20;6.75;;;;;;;14.11;78.72;100174.25;4842255;28;21226;-57
2023/05/16 00:37:34;;;;;;;16.60;6.53;;;;;;;13.88;79.92;100167.97;4847565;28;20374;-56
2023/05/16 00:40:05;;;;;;;17.38;6.55;;;;;;;13.72;80.69;100183.31;4853508;28;20392;-57
2023/05/16 00:42:37;;;;;;;21.92;6.85;;;;;;;13.52;80.98;100175.19;4854089;28;20127;-56
2023/05/16 00:45:11;;;;;;;20.65;6.35;;;;;;;13.30;81.58;100175.81;4854048;28;20053;-57
2023/05/16 00:47:43;;;;;;;21.63;6.22;;;;;;;13.12;81.72;100176.31;4850367;28;20073;-57
2023/05/16 00:50:15;;;;;;;15.95;5.88;;;;;;;13.01;82.45;100173.13;4853991;28;20136;-57
2023/05/16 00:52:47;;;;;;;15.32;6.40;;;;;;;13.00;83.45;100181.91;4853947;28;20565;-58
2023/05/16 00:55:19;;;;;;;22.60;7.13;;;;;;;12.94;82.99;100177.69;4852813;28;20502;-56
2023/05/16 00:57:51;;;;;;;17.13;6.90;;;;;;;12.85;83.52;100176.16;4853076;28;20058;-57
2023/05/16 01:00:24;;;;;;;20.90;6.95;;;;;;;12.79;83.52;100184.19;4852591;28;20050;-56
2023/05/16 01:02:57;;;;;;;17.95;6.47;;;;;;;12.46;83.83;100144.88;4852712;28;20050;-57
2023/05/16 01:05:30;;;;;;;15.90;6.88;;;;;;;12.62;84.63;100176.78;4853161;28;20054;-58
2023/05/16 01:08:01;;;;;;;21.00;6.10;;;;;;;12.58;84.77;100185.66;4853791;28;20053;-57
2023/05/16 01:10:50;;;;;;;16.98;6.65;;;;;;;12.67;85.04;100179.28;4843270;28;20162;-56
2023/05/16 01:13:30;;;;;;;22.98;6.45;;;;;;;12.59;84.24;100170.78;4842186;28;20139;-57
2023/05/16 01:16:10;;;;;;;20.08;6.50;;;;;;;12.65;84.54;100181.09;4827932;28;20061;-56
2023/05/16 01:18:48;;;;;;;29.15;7.03;;;;;;;12.72;84.66;100199.22;4842818;28;20053;-56
2023/05/16 01:21:27;;;;;;;23.48;7.10;;;;;;;12.73;84.73;100184.38;4849858;28;20069;-56
2023/05/16 01:24:14;;;;;;;23.90;7.45;;;;;;;12.67;84.17;100197.63;4844521;28;20060;-56
2023/05/16 01:26:50;;;;;;;20.15;6.85;;;;;;;12.55;84.16;100195.31;4843358;28;20057;-56
2023/05/16 01:29:21;;;;;;;20.60;6.75;;;;;;;12.44;84.37;100199.09;4853063;28;20062;-56
2023/05/16 01:31:52;;;;;;;19.83;7.70;;;;;;;12.38;84.99;100204.50;4851816;28;20043;-56
2023/05/16 01:34:23;;;;;;;21.00;7.32;;;;;;;12.36;85.33;100190.56;4857789;28;20065;-56
2023/05/16 01:37:03;;;;;;;19.67;6.93;;;;;;;12.22;85.03;100192.66;4854534;28;20058;-55
2023/05/16 01:39:42;;;;;;;23.85;7.13;;;;;;;12.04;85.35;100173.84;4842744;28;20075;-56
2023/05/16 01:42:16;;;;;;;25.33;7.55;;;;;;;11.88;85.92;100162.00;4847937;28;20054;-57
2023/05/16 01:44:51;;;;;;;21.73;7.03;;;;;;;11.93;86.71;100175.88;4852956;28;20053;-56
2023/05/16 01:47:24;;;;;;;21.02;7.28;;;;;;;11.87;86.97;100165.53;4852944;28;20124;-54
2023/05/16 01:50:02;;;;;;;22.55;7.85;;;;;;;11.82;87.60;100157.75;4852437;28;20500;-56
2023/05/16 01:52:39;;;;;;;30.10;7.90;;;;;;;11.80;87.73;100169.16;4829032;28;20051;-56
2023/05/16 01:55:15;;;;;;;23.77;7.68;;;;;;;11.73;87.74;100162.34;4835675;28;20054;-57
2023/05/16 01:57:52;;;;;;;28.38;8.88;;;;;;;11.56;87.97;100155.75;4826430;28;20058;-56
2023/05/16 02:00:24;;;;;;;25.38;8.07;;;;;;;11.51;88.43;100168.06;4832733;28;20053;-56
2023/05/16 02:02:54;;;;;;;24.10;8.45;;;;;;;11.44;88.83;100171.69;4836599;28;20117;-56
2023/05/16 02:05:25;;;;;;;27.30;8.65;;;;;;;11.46;88.89;100180.38;4835960;28;20050;-56
2023/05/16 02:07:56;;;;;;;22.75;7.32;;;;;;;11.47;89.54;100182.09;4837661;28;20198;-56
2023/05/16 02:10:28;;;;;;;22.65;7.47;;;;;;;11.36;89.44;100190.19;4837526;28;20052;-57
2023/05/16 02:13:00;;;;;;;27.55;7.88;;;;;;;11.37;89.42;100201.50;4835630;28;20061;-56
2023/05/16 02:15:31;;;;;;;26.48;8.40;;;;;;;11.32;89.13;100198.13;4835719;28;20065;-56
2023/05/16 02:18:01;;;;;;;22.75;7.30;;;;;;;11.29;89.34;100198.19;4836786;28;20060;-54
2023/05/16 02:20:32;;;;;;;21.70;7.38;;;;;;;11.34;89.48;100206.81;4834218;28;20061;-56
2023/05/16 02:23:03;;;;;;;22.42;7.25;;;;;;;11.28;89.11;100207.75;4839436;28;20043;-56
2023/05/16 02:25:34;;;;;;;20.70;7.18;;;;;;;11.11;89.12;100187.19;4835768;28;20092;-56
2023/05/16 02:28:06;;;;;;;22.52;7.20;;;;;;;11.15;89.22;100201.91;4837250;28;20078;-56
2023/05/16 02:30:40;;;;;;;24.25;7.65;;;;;;;11.15;89.38;100201.91;4837487;28;20042;-55
2023/05/16 02:33:11;;;;;;;24.35;7.47;;;;;;;11.16;89.10;100198.44;4833453;28;20416;-55
2023/05/16 02:35:42;;;;;;;25.40;7.47;;;;;;;11.16;89.00;100208.03;4833662;28;20047;-56
2023/05/16 02:38:16;;;;;;;22.58;7.05;;;;;;;11.11;88.67;100194.19;4842850;28;20066;-55
2023/05/16 02:40:46;;;;;;;18.88;7.00;;;;;;;11.08;88.68;100200.31;4836665;28;20062;-56
2023/05/16 02:43:19;;;;;;;22.83;6.72;;;;;;;11.03;89.38;100202.16;4835343;28;20057;-56
2023/05/16 02:45:50;;;;;;;22.63;6.55;;;;;;;10.97;89.44;100207.50;4823932;28;20075;-56
2023/05/16 02:48:21;;;;;;;22.25;6.97;;;;;;;10.83;89.70;100201.69;4841627;28;20054;-56
2023/05/16 02:50:52;;;;;;;18.90;6.82;;;;;;;10.73;90.28;100199.25;4830358;28;20054;-57
2023/05/16 02:53:23;;;;;;;25.08;6.72;;;;;;;10.72;90.60;100197.50;4842652;28;20644;-56
2023/05/16 02:55:53;;;;;;;27.77;7.00;;;;;;;10.78;91.00;100186.97;4840150;28;20054;-56
2023/05/16 02:58:26;;;;;;;22.88;7.43;;;;;;;10.86;90.85;100196.38;4839044;28;20690;-56
2023/05/16 03:00:57;;;;;;;23.38;7.85;;;;;;;10.95;91.25;100193.59;4838851;28;20116;-57
2023/05/16 03:03:28;;;;;;;23.40;7.60;;;;;;;10.99;90.12;100195.28;4852936;28;20049;-57
2023/05/16 03:05:59;;;;;;;18.80;7.63;;;;;;;10.96;89.81;100196.19;4854381;28;20050;-58
2023/05/16 03:08:30;;;;;;;26.45;7.22;;;;;;;10.96;89.84;100179.66;4855046;28;20077;-56
2023/05/16 03:11:00;;;;;;;19.13;7.07;;;;;;;11.06;89.97;100181.22;4839946;28;20046;-57
2023/05/16 03:13:33;;;;;;;23.65;7.63;;;;;;;11.14;89.25;100174.06;4838565;28;20050;-57
2023/05/16 03:16:04;;;;;;;21.25;7.50;;;;;;;11.23;89.39;100167.75;4830493;28;20154;-56
2023/05/16 03:18:34;;;;;;;28.55;7.72;;;;;;;11.35;89.29;100161.44;4838868;28;20062;-56
2023/05/16 03:21:06;;;;;;;27.13;8.20;;;;;;;11.08;87.69;100106.19;4838469;28;20282;-56
2023/05/16 03:23:38;;;;;;;34.13;9.07;;;;;;;11.36;87.43;100168.41;4838459;28;20050;-57
2023/05/16 03:26:09;;;;;;;22.52;7.88;;;;;;;11.34;87.41;100162.34;4855122;28;20503;-56
2023/05/16 03:28:41;;;;;;;26.20;7.45;;;;;;;11.29;86.68;100151.09;4853760;28;20137;-54
2023/05/16 03:31:12;;;;;;;25.05;6.93;;;;;;;11.39;87.11;100157.88;4837373;28;20516;-56
2023/05/16 03:33:43;;;;;;;26.02;6.85;;;;;;;11.53;86.86;100154.94;4840878;28;20464;-57
2023/05/16 03:36:14;;;;;;;55.08;9.75;;;;;;;11.71;86.59;100153.69;4838283;28;20491;-57
2023/05/16 03:38:45;;;;;;;60.10;11.75;;;;;;;11.79;85.58;100159.59;4838504;28;20096;-57
2023/05/16 03:41:16;;;;;;;60.33;11.38;;;;;;;11.91;85.26;100156.72;4854372;28;20050;-57
2023/05/16 03:43:50;;;;;;;19.25;5.75;;;;;;;12.04;84.84;100152.91;4854535;28;20080;-57
2023/05/16 03:46:27;;;;;;;22.35;6.60;;;;;;;12.14;84.24;100164.03;4854049;28;20149;-57
2023/05/16 03:49:00;;;;;;;22.10;7.15;;;;;;;12.29;84.76;100161.03;4843685;28;20440;-57
2023/05/16 03:51:34;;;;;;;21.80;6.75;;;;;;;12.32;83.38;100156.59;4846522;28;20065;-56
2023/05/16 03:54:05;;;;;;;21.08;6.38;;;;;;;12.43;82.75;100160.69;4851713;28;20045;-57
2023/05/16 03:56:36;;;;;;;31.63;7.47;;;;;;;12.41;83.18;100162.47;4853808;28;20166;-57
2023/05/16 03:59:08;;;;;;;39.95;8.02;;;;;;;12.40;82.54;100160.75;4853123;28;20064;-57
2023/05/16 04:01:39;;;;;;;18.98;6.57;;;;;;;12.45;82.49;100158.88;4851942;28;20058;-57
2023/05/16 04:04:10;;;;;;;24.25;7.30;;;;;;;12.55;82.52;100158.63;4853760;28;20053;-57
2023/05/16 04:06:41;;;;;;;22.70;6.90;;;;;;;12.64;83.18;100151.38;4853657;28;20165;-57
2023/05/16 04:09:11;;;;;;;18.88;6.15;;;;;;;12.72;82.22;100151.19;4853145;28;20165;-55
2023/05/16 04:11:42;;;;;;;19.15;6.25;;;;;;;12.67;82.07;100153.06;4850786;28;20061;-55
2023/05/16 04:14:15;;;;;;;20.92;7.00;;;;;;;12.68;82.20;100154.78;4857812;28;20061;-54
2023/05/16 04:16:46;;;;;;;19.67;6.57;;;;;;;12.72;82.26;100151.19;4852825;28;20424;-55
2023/05/16 04:19:16;;;;;;;21.17;6.15;;;;;;;12.87;82.21;100144.66;4853914;28;20054;-56
2023/05/16 04:21:47;;;;;;;25.65;6.93;;;;;;;13.06;82.29;100124.03;4853594;28;20108;-55
2023/05/16 04:24:18;;;;;;;27.33;7.53;;;;;;;13.33;81.12;100136.38;4853949;28;20050;-55
2023/05/16 04:26:50;;;;;;;20.60;7.10;;;;;;;13.47;80.50;100135.09;4854314;28;20053;-57
2023/05/16 04:29:22;;;;;;;22.13;7.82;;;;;;;13.62;80.36;100139.00;4854091;28;20053;-56
2023/05/16 04:31:53;;;;;;;21.05;7.47;;;;;;;13.71;79.76;100147.47;4847231;28;20043;-54
2023/05/16 04:34:26;;;;;;;25.60;7.13;;;;;;;13.84;78.77;100144.47;4854337;28;20054;-54
2023/05/16 04:36:57;;;;;;;18.98;6.72;;;;;;;13.88;78.65;100130.31;4852928;28;20062;-55
2023/05/16 04:39:27;;;;;;;16.58;6.65;;;;;;;13.81;78.33;100130.50;4852710;28;20058;-56
2023/05/16 04:41:58;;;;;;;19.33;6.82;;;;;;;13.84;78.70;100128.69;4853597;28;20057;-56
2023/05/16 04:44:33;;;;;;;147.63;16.67;;;;;;;13.98;78.46;100126.50;4853259;28;20077;-55
2023/05/16 04:47:06;;;;;;;23.67;7.57;;;;;;;14.11;78.41;100122.56;4844758;28;21337;-55
2023/05/16 04:49:40;;;;;;;24.10;6.85;;;;;;;14.23;77.88;100101.13;4853189;28;20042;-56
2023/05/16 04:52:11;;;;;;;22.83;7.15;;;;;;;14.46;77.47;100091.59;4853031;28;20053;-55
2023/05/16 04:54:43;;;;;;;22.35;6.85;;;;;;;14.61;76.30;100101.59;4848525;28;20485;-55
2023/05/16 04:57:13;;;;;;;29.98;7.50;;;;;;;14.59;76.05;100103.41;4855229;28;20047;-56
2023/05/16 04:59:45;;;;;;;19.00;6.60;;;;;;;14.93;78.04;100091.69;4853405;28;20049;-55
2023/05/16 05:02:16;;;;;;;22.05;6.40;;;;;;;15.23;76.77;100109.88;4853270;28;20512;-56
2023/05/16 05:04:47;;;;;;;17.42;6.25;;;;;;;15.27;74.83;100108.81;4852337;28;20073;-55
2023/05/16 05:07:18;;;;;;;14.33;5.30;;;;;;;15.12;73.27;100098.88;4852613;28;20057;-56
2023/05/16 05:09:48;;;;;;;16.52;5.22;;;;;;;14.98;74.72;100100.25;4852906;28;20286;-55
2023/05/16 05:12:19;;;;;;;17.37;5.17;;;;;;;15.08;75.09;100091.09;4851546;28;20065;-56
2023/05/16 05:14:51;;;;;;;21.67;5.87;;;;;;;15.26;74.03;100091.31;4852064;28;21067;-57
2023/05/16 05:17:23;;;;;;;17.07;5.57;;;;;;;15.41;73.79;100087.22;4851452;28;20305;-55
2023/05/16 05:19:54;;;;;;;20.43;5.67;;;;;;;15.42;73.23;100074.00;4853481;28;20363;-56
2023/05/16 05:22:25;;;;;;;13.17;5.53;;;;;;;15.32;71.65;100078.78;4852380;28;20288;-57
2023/05/16 05:24:55;;;;;;;23.63;5.53;;;;;;;15.19;72.22;100071.41;4852152;28;20292;-57
2023/05/16 05:27:26;;;;;;;20.93;5.03;;;;;;;15.14;72.58;100068.09;4852054;28;20296;-55
2023/05/16 05:29:59;;;;;;;19.10;6.07;;;;;;;15.13;72.44;100066.38;4852311;28;20478;-57
2023/05/16 05:32:30;;;;;;;19.30;5.30;;;;;;;14.98;72.30;100066.06;4852812;28;20810;-57
2023/05/16 05:35:00;;;;;;;14.27;4.83;;;;;;;14.88;73.04;100069.94;4852626;28;20295;-57
2023/05/16 05:37:31;;;;;;;27.50;6.97;;;;;;;14.72;73.61;100060.88;4852528;28;20312;-56
2023/05/16 05:40:02;;;;;;;23.67;6.00;;;;;;;14.58;73.33;100075.41;4850681;28;20252;-55
2023/05/16 05:42:33;;;;;;;13.33;4.93;;;;;;;14.48;73.66;100074.00;4847046;28;20281;-56
2023/05/16 05:45:06;;;;;;;17.63;4.83;;;;;;;14.36;73.61;100080.53;4853062;28;20307;-56
2023/05/16 05:47:37;;;;;;;12.67;4.20;;;;;;;14.27;73.81;100058.97;4852856;28;20288;-56
2023/05/16 05:50:10;;;;;;;17.20;4.47;;;;;;;14.03;74.03;100079.91;4852686;28;20289;-56
2023/05/16 05:52:41;;;;;;;16.77;4.73;;;;;;;13.81;74.60;100080.63;4851886;28;21137;-56
2023/05/16 05:55:12;;;;;;;13.77;4.63;;;;;;;13.78;75.44;100088.59;4851762;28;20355;-55
2023/05/16 05:57:45;;;;;;;19.50;4.60;;;;;;;13.71;75.47;100088.84;4857553;28;20301;-56
2023/05/16 06:00:17;;;;;;;12.05;4.25;;;;;;;13.63;75.88;100073.34;4851939;28;20437;-57
2023/05/16 06:02:49;;;;;;;15.83;4.90;;;;;;;13.70;75.90;100063.47;4851308;28;20488;-55
2023/05/16 06:05:20;;;;;;;51.33;7.90;;;;;;;13.70;76.02;100068.72;4855346;28;20299;-56
2023/05/16 06:07:51;;;;;;;17.23;4.93;;;;;;;13.80;75.67;100065.78;4858146;28;20585;-56
2023/05/16 06:10:22;;;;;;;16.88;5.32;;;;;;;13.88;75.64;100064.63;4849483;28;20051;-56
2023/05/16 06:12:52;;;;;;;21.63;5.20;;;;;;;13.89;75.30;100063.75;4858266;28;20461;-56
2023/05/16 06:15:25;;;;;;;15.02;4.63;;;;;;;13.87;75.27;100060.31;4856015;28;20057;-56
2023/05/16 06:17:56;;;;;;;16.88;5.13;;;;;;;13.75;75.25;100067.69;4851832;28;20058;-56
2023/05/16 06:20:27;;;;;;;14.73;5.00;;;;;;;13.71;75.66;100076.56;4851104;28;20421;-56
2023/05/16 06:22:58;;;;;;;36.03;7.13;;;;;;;13.62;75.44;100087.34;4852450;28;20277;-56
2023/05/16 06:25:29;;;;;;;25.85;6.38;;;;;;;13.47;75.96;100082.59;4852055;28;20144;-57
2023/05/16 06:28:02;;;;;;;20.77;5.57;;;;;;;13.43;76.34;100075.72;4848733;28;20122;-56
2023/05/16 06:30:38;;;;;;;17.48;5.07;;;;;;;13.29;76.49;100058.63;4852657;28;20103;-56
2023/05/16 06:33:08;;;;;;;24.52;6.43;;;;;;;13.39;76.90;100088.09;4851881;28;20069;-54
2023/05/16 06:35:40;;;;;;;15.38;5.32;;;;;;;13.42;76.36;100095.84;4853195;28;20072;-54
2023/05/16 06:38:10;;;;;;;21.77;6.30;;;;;;;13.20;76.44;100084.25;4862097;28;20058;-56
2023/05/16 06:40:41;;;;;;;21.67;6.15;;;;;;;13.23;77.12;100090.28;4855535;28;20046;-56
2023/05/16 06:43:12;;;;;;;20.00;5.50;;;;;;;13.36;77.08;100086.41;4855281;28;20154;-56
2023/05/16 06:45:46;;;;;;;18.17;5.43;;;;;;;13.34;75.78;100092.63;4851302;28;20118;-56
2023/05/16 06:48:23;;;;;;;19.15;5.40;;;;;;;13.31;75.96;100093.56;4855081;28;20563;-56
2023/05/16 06:50:54;;;;;;;21.15;6.07;;;;;;;13.36;75.95;100091.66;4844092;28;20496;-56
2023/05/16 06:53:26;;;;;;;17.13;5.65;;;;;;;13.12;76.16;100050.38;4859576;28;20060;-56
2023/05/16 06:55:57;;;;;;;21.92;6.10;;;;;;;13.26;76.39;100087.56;4860901;28;20054;-57
2023/05/16 06:58:27;;;;;;;16.38;5.75;;;;;;;13.13;76.47;100099.34;4855067;28;20050;-56
2023/05/16 07:01:00;;;;;;;22.00;6.40;;;;;;;13.11;76.90;100077.53;4855123;28;20101;-56
2023/05/16 07:03:35;;;;;;;16.42;6.55;;;;;;;13.12;76.62;100071.38;4844256;28;20056;-57
2023/05/16 07:06:26;;;;;;;22.23;6.95;;;;;;;13.27;77.19;100057.81;4854531;28;20047;-56
2023/05/16 07:09:05;;;;;;;16.67;6.70;;;;;;;13.47;76.75;100051.09;4846372;28;20540;-56
2023/05/16 07:11:38;;;;;;;20.80;6.70;;;;;;;13.70;76.40;100068.72;4855325;28;20050;-56
2023/05/16 07:14:18;;;;;;;15.98;5.70;;;;;;;13.69;75.01;100057.38;4844252;28;20124;-56
2023/05/16 07:16:50;;;;;;;16.85;6.50;;;;;;;13.59;74.61;100050.72;4854589;28;20147;-56
2023/05/16 07:19:22;;;;;;;19.20;6.30;;;;;;;13.41;74.41;100032.94;4853889;28;20050;-56
2023/05/16 07:21:52;;;;;;;17.02;5.82;;;;;;;13.52;74.47;100054.44;4861033;28;20050;-57
2023/05/16 07:24:23;;;;;;;19.05;5.82;;;;;;;13.10;74.73;100023.34;4857027;28;20042;-57
2023/05/16 07:26:54;;;;;;;23.75;6.55;;;;;;;13.10;75.33;100031.22;4854136;28;20054;-57
2023/05/16 07:29:24;;;;;;;23.20;5.97;;;;;;;12.93;75.75;100039.59;4854113;28;20050;-56
2023/05/16 07:31:57;;;;;;;23.85;6.82;;;;;;;12.83;76.20;100044.25;4855700;28;20129;-57
2023/05/16 07:34:27;;;;;;;15.05;6.25;;;;;;;12.91;76.75;100055.38;4839510;28;20146;-56
2023/05/16 07:36:58;;;;;;;20.60;6.85;;;;;;;13.03;76.71;100040.16;4837819;28;20046;-56
2023/05/16 07:39:29;;;;;;;18.98;6.05;;;;;;;13.04;76.58;100047.16;4836200;28;20082;-56
2023/05/16 07:42:00;;;;;;;22.63;6.30;;;;;;;13.01;75.80;100055.13;4836597;28;20085;-57
2023/05/16 07:44:30;;;;;;;22.05;6.47;;;;;;;12.92;76.60;100043.97;4853863;28;20158;-56
2023/05/16 07:47:03;;;;;;;21.42;7.30;;;;;;;12.95;77.03;100041.28;4854716;28;20053;-56
2023/05/16 07:49:34;;;;;;;20.98;7.32;;;;;;;12.90;76.75;100035.31;4845706;28;20053;-57
2023/05/16 07:52:05;;;;;;;23.73;6.90;;;;;;;12.90;76.98;100037.94;4853895;28;20093;-57
2023/05/16 07:54:36;;;;;;;22.80;6.82;;;;;;;12.75;76.24;100043.59;4854545;28;20054;-57
2023/05/16 07:57:07;;;;;;;20.33;7.18;;;;;;;12.59;77.09;100056.28;4854803;28;20072;-57
2023/05/16 07:59:38;;;;;;;24.05;8.20;;;;;;;12.49;77.31;100066.16;4854332;28;20140;-56
2023/05/16 08:02:14;;;;;;;23.77;7.45;;;;;;;12.38;77.78;100072.59;4852155;28;20173;-55
2023/05/16 08:04:45;;;;;;;26.98;7.10;;;;;;;12.11;78.17;100048.00;4843611;28;20057;-57
2023/05/16 08:07:16;;;;;;;23.08;7.93;;;;;;;12.19;78.42;100082.72;4853739;28;20049;-57
2023/05/16 08:09:47;;;;;;;22.58;7.20;;;;;;;12.23;78.56;100089.56;4853013;28;21110;-57
2023/05/16 08:12:18;;;;;;;23.48;7.68;;;;;;;12.15;78.42;100083.69;4853320;28;20058;-57
2023/05/16 08:14:48;;;;;;;20.88;7.28;;;;;;;12.07;78.96;100089.13;4853194;28;20069;-56
2023/05/16 08:17:21;;;;;;;22.20;6.85;;;;;;;11.93;78.84;100085.97;4851318;28;20050;-57
2023/05/16 08:19:52;;;;;;;22.83;7.72;;;;;;;11.85;79.45;100088.75;4853203;28;21064;-56
2023/05/16 08:22:22;;;;;;;17.80;6.82;;;;;;;11.84;79.74;100087.91;4850435;28;20054;-56
2023/05/16 08:24:56;;;;;;;27.65;7.93;;;;;;;11.81;79.97;100076.66;4856775;28;20062;-56
2023/05/16 08:27:27;;;;;;;24.45;7.75;;;;;;;11.79;80.06;100083.69;4853105;28;20219;-57
2023/05/16 08:29:58;;;;;;;19.35;6.57;;;;;;;11.77;80.04;100085.47;4853393;28;20733;-56
2023/05/16 08:32:30;;;;;;;26.70;6.75;;;;;;;11.78;80.02;100081.94;4853599;28;20397;-57
2023/05/16 08:35:01;;;;;;;19.13;7.43;;;;;;;11.87;80.23;100073.91;4853548;28;20085;-57
2023/05/16 08:37:36;;;;;;;22.05;7.13;;;;;;;11.85;79.44;100073.03;4843366;28;20485;-55
2023/05/16 08:40:10;;;;;;;27.30;7.50;;;;;;;11.80;78.93;100070.53;4853910;28;20053;-56
2023/05/16 08:42:41;;;;;;;16.85;6.95;;;;;;;11.73;78.84;100078.56;4853023;28;20054;-56
2023/05/16 08:45:14;;;;;;;25.98;7.72;;;;;;;11.71;79.43;100083.88;4845186;28;20051;-57
2023/05/16 08:47:55;;;;;;;20.92;7.20;;;;;;;11.68;79.14;100081.28;4853135;28;20093;-57
2023/05/16 08:50:32;;;;;;;27.25;7.15;;;;;;;11.65;79.06;100082.22;4848853;28;20223;-56
2023/05/16 08:53:07;;;;;;;26.00;7.00;;;;;;;11.61;79.46;100084.97;4853344;28;20457;-55
2023/05/16 08:55:43;;;;;;;20.58;7.30;;;;;;;11.51;79.21;100084.34;4852880;28;20065;-57
2023/05/16 08:58:17;;;;;;;21.85;7.47;;;;;;;11.41;80.03;100088.91;4843116;28;20058;-57
2023/05/16 09:00:49;;;;;;;23.33;7.43;;;;;;;11.39;80.17;100084.59;4852439;28;20153;-57
2023/05/16 09:03:23;;;;;;;23.52;7.50;;;;;;;11.32;80.31;100083.03;4849353;28;20093;-57
2023/05/16 09:05:56;;;;;;;27.15;7.95;;;;;;;11.33;80.26;100074.28;4827448;28;20054;-57
2023/05/16 09:08:27;;;;;;;22.17;7.22;;;;;;;11.23;80.29;100069.25;4853078;28;20049;-58
2023/05/16 09:10:58;;;;;;;23.13;8.00;;;;;;;11.10;80.59;100086.09;4853359;28;20168;-57
2023/05/16 09:13:29;;;;;;;23.08;7.47;;;;;;;10.98;80.99;100088.97;4852798;28;20462;-57
2023/05/16 09:16:13;;;;;;;26.08;7.90;;;;;;;11.00;80.87;100092.41;4852496;28;20057;-54
2023/05/16 09:18:46;;;;;;;23.10;7.90;;;;;;;10.87;81.04;100104.88;4843948;28;20050;-55
2023/05/16 09:21:19;;;;;;;20.45;8.35;;;;;;;10.82;81.58;100111.09;4851560;28;20050;-54
2023/05/16 09:23:51;;;;;;;24.13;8.45;;;;;;;10.75;81.87;100113.81;4852589;28;20046;-55
2023/05/16 09:26:23;;;;;;;33.47;9.65;;;;;;;10.73;82.06;100120.84;4849494;28;20156;-54
2023/05/16 09:28:56;;;;;;;22.42;8.82;;;;;;;10.49;82.29;100097.78;4853038;28;20057;-54
2023/05/16 09:31:35;;;;;;;27.75;9.52;;;;;;;10.60;82.40;100129.78;4852841;28;20050;-55
2023/05/16 09:34:10;;;;;;;32.45;8.30;;;;;;;10.44;82.08;100112.69;4842821;28;20054;-57
2023/05/16 09:36:41;;;;;;;22.17;8.85;;;;;;;10.50;82.58;100167.44;4835859;28;20446;-56
2023/05/16 09:39:16;;;;;;;22.67;8.35;;;;;;;10.43;82.67;100173.63;4843402;28;20065;-57
2023/05/16 09:41:52;;;;;;;21.48;8.07;;;;;;;10.34;82.89;100170.31;4830139;28;20228;-56
2023/05/16 09:44:23;;;;;;;33.55;9.38;;;;;;;10.28;83.67;100169.53;4846407;28;20042;-57
2023/05/16 09:46:55;;;;;;;27.17;8.82;;;;;;;10.20;83.27;100172.25;4853824;28;20045;-57
2023/05/16 09:49:28;;;;;;;28.67;9.68;;;;;;;10.15;83.59;100189.72;4852389;28;20045;-57
2023/05/16 09:52:02;;;;;;;29.60;9.82;;;;;;;10.06;83.92;100205.53;4852019;28;20144;-57
2023/05/16 09:54:36;;;;;;;28.90;9.15;;;;;;;10.01;84.04;100209.97;4826937;28;20376;-58
2023/05/16 09:57:07;;;;;;;27.58;8.52;;;;;;;10.02;84.62;100211.69;4862229;28;20083;-58
2023/05/16 09:59:44;;;;;;;23.98;8.65;;;;;;;9.96;84.56;100209.16;4851618;28;20178;-57
2023/05/16 10:02:15;;;;;;;26.10;8.23;;;;;;;9.76;84.68;100181.63;4842297;28;20634;-57
2023/05/16 10:04:48;;;;;;;24.15;8.25;;;;;;;9.96;84.79;100210.06;4851666;28;20479;-57
2023/05/16 10:07:20;;;;;;;25.48;8.43;;;;;;;9.92;84.50;100213.59;4836970;28;20508;-57
2023/05/16 10:09:53;;;;;;;26.02;8.85;;;;;;;9.85;84.47;100210.19;4851353;28;20054;-57
2023/05/16 10:12:31;;;;;;;28.55;9.55;;;;;;;9.78;84.78;100195.50;4842087;28;20045;-53
2023/05/16 10:15:03;;;;;;;27.42;9.20;;;;;;;9.79;84.60;100186.81;4855687;28;20064;-55
2023/05/16 10:17:37;;;;;;;24.60;8.68;;;;;;;9.67;84.98;100179.16;4847488;28;20054;-54
2023/05/16 10:20:12;;;;;;;30.67;8.90;;;;;;;9.58;85.02;100171.44;4857055;28;20057;-54
2023/05/16 10:22:46;;;;;;;24.55;8.93;;;;;;;9.23;85.46;100128.44;4850241;28;20066;-57
2023/05/16 10:25:26;;;;;;;29.17;9.55;;;;;;;9.27;86.13;100161.41;4855485;28;20421;-57
2023/05/16 10:28:01;;;;;;;25.70;9.15;;;;;;;9.22;86.53;100163.22;4843545;28;20049;-57
2023/05/16 10:30:42;;;;;;;27.27;9.32;;;;;;;9.16;86.96;100178.94;4864079;28;20096;-57
2023/05/16 10:33:14;;;;;;;23.15;8.85;;;;;;;8.97;87.19;100153.09;4848860;28;20065;-57
2023/05/16 10:35:47;;;;;;;28.02;9.43;;;;;;;9.11;87.15;100196.38;4855613;28;20061;-56
2023/05/16 10:38:23;;;;;;;58.15;22.98;;;;;;;9.01;87.52;100195.59;4856219;28;20454;-57
2023/05/16 10:40:54;;;;;;;71.25;26.23;;;;;;;9.02;87.35;100213.84;4847614;28;20619;-56
2023/05/16 10:43:29;;;;;;;33.28;10.73;;;;;;;9.02;87.71;100219.06;4855635;28;20705;-57
2023/05/16 10:46:06;;;;;;;24.90;10.60;;;;;;;8.91;87.66;100210.50;4855326;28;20054;-57
2023/05/16 10:48:38;;;;;;;29.98;10.95;;;;;;;8.96;88.00;100226.94;4845527;28;20048;-57
2023/05/16 10:51:40;;;;;;;29.95;10.77;;;;;;;8.62;88.09;100188.19;4855598;28;20054;-57
2023/05/16 10:54:14;;;;;;;27.17;10.23;;;;;;;8.78;88.11;100232.31;4844138;28;20064;-55
2023/05/16 10:56:47;;;;;;;33.00;10.70;;;;;;;8.72;88.57;100240.22;4854817;28;20061;-56
2023/05/16 10:59:25;;;;;;;29.55;10.05;;;;;;;8.67;89.32;100247.22;4855485;28;20105;-57
2023/05/16 11:01:57;;;;;;;27.58;11.07;;;;;;;8.63;89.26;100257.63;4844174;28;20137;-57
2023/05/16 11:04:47;;;;;;;23.88;10.15;;;;;;;8.63;89.43;100257.63;4852321;28;20050;-57
2023/05/16 11:07:19;;;;;;;27.30;10.80;;;;;;;8.63;89.52;100268.06;4844706;28;20123;-57
2023/05/16 11:10:10;;;;;;;25.52;9.52;;;;;;;8.68;89.42;100264.56;4854456;28;20318;-57
2023/05/16 11:13:14;;;;;;;31.08;9.85;;;;;;;8.45;89.35;100242.16;4844737;28;20050;-57
2023/05/16 11:15:46;;;;;;;28.80;9.82;;;;;;;8.40;89.86;100250.00;4845196;28;20050;-57
2023/05/16 11:18:18;;;;;;;25.02;9.32;;;;;;;8.50;89.47;100245.59;4854588;28;20136;-57
2023/05/16 11:20:54;;;;;;;21.85;8.88;;;;;;;8.63;89.29;100278.47;4854856;28;20491;-57
2023/05/16 11:23:26;;;;;;;26.83;11.32;;;;;;;8.63;89.27;100283.69;4845520;28;20050;-57
2023/05/16 11:26:00;;;;;;;25.85;10.30;;;;;;;8.61;89.36;100290.66;4854142;28;20488;-57
2023/05/16 11:28:31;;;;;;;25.98;9.75;;;;;;;8.62;89.33;100292.38;4854359;28;20794;-56
2023/05/16 11:31:04;;;;;;;27.85;10.43;;;;;;;8.74;88.99;100280.16;4854338;28;20041;-57
2023/05/16 11:33:35;;;;;;;28.70;10.30;;;;;;;8.71;88.69;100274.94;4845329;28;20046;-56
2023/05/16 11:36:10;;;;;;;26.70;9.63;;;;;;;8.68;88.79;100270.63;4854757;28;20421;-57
2023/05/16 11:38:47;;;;;;;19.60;10.05;;;;;;;8.70;88.34;100273.22;4844508;28;20116;-56
2023/05/16 11:41:24;;;;;;;28.60;10.25;;;;;;;8.67;88.28;100288.88;4855013;28;20064;-55
2023/05/16 11:43:57;;;;;;;;;;;;;;;8.68;88.53;100290.59;4845589;28;20069;-57
2023/05/16 11:46:27;;;;;;;;;;;;;;;8.72;88.32;100293.16;4853297;28;19944;-56
2023/05/16 11:49:01;;;;;;;30.90;10.40;;;;;;;8.70;88.01;100294.06;4852671;28;20415;-57